Flight Track Log - Related Links

Times and Time Zones

All times are in EDT time to prevent confusion due to time zone crossing. See the SKW7430 flight status page for this flight to view local times or setup timezone preferences in your user account.

Time Position Orientation Groundspeed Altitude Reporting Facility
EDT Latitude Longitude Course Direction KTS MPH feet Rate Location/Type
Fri 08:01:57 PM 42.8211 -112.5789 165° South 174 200 8,300  Level Salt Lake Center
Fri 08:02:58 PM 42.7694 -112.5633 168° South 189 217 10,300 1,659 Climbing Salt Lake Center
Fri 08:03:00 PM 42.9216 -113.0116 163° South  Level FlightAware Approximate
Fri 08:04:00 PM 42.8423 -112.9776 163° South  Level FlightAware Approximate
Fri 08:04:00 PM 42.7161 -112.5594 177° South 197 227 11,700  Level Salt Lake Center
Fri 08:05:00 PM 42.7626 -112.9450 164° South  Level FlightAware Approximate
Fri 08:05:02 PM 42.6506 -112.5556 178° South 228 262 12,800  Level Salt Lake Center
Fri 08:06:00 PM 42.6829 -112.9131 164° South  Level FlightAware Approximate
Fri 08:06:03 PM 42.5653 -112.5553 180° South 253 291 14,000  Level Salt Lake Center
Fri 08:07:05 PM 42.4911 -112.5503 177° South 266 306 15,200 1,113 Climbing Salt Lake Center
Fri 08:08:07 PM 42.4167 -112.5447 177° South 269 310 16,300 1,073 Climbing Salt Lake Center
Fri 08:09:08 PM 42.3400 -112.5381 176° South 274 315 17,400 829 Climbing Salt Lake Center
Fri 08:10:10 PM 42.2617 -112.5342 178° South 280 322 18,000 823 Climbing Salt Lake Center
Fri 08:11:12 PM 42.1831 -112.5308 178° South 283 326 19,100 919 Climbing Salt Lake Center
Fri 08:12:14 PM 42.1028 -112.5217 175° South 288 331 19,900 829 Climbing Salt Lake Center
Fri 08:13:15 PM 42.0058 -112.5200 179° South 292 336 20,800 878 Climbing Salt Lake Center
Fri 08:14:17 PM 41.9239 -112.5119 176° South 294 338 21,700 390 Climbing Salt Lake Center
Fri 08:15:18 PM 41.8406 -112.5075 178° South 298 343 21,600 -976 Descending Salt Lake Center
Fri 08:16:20 PM 41.7508 -112.5019 177° South 315 362 19,700 -2,217 Descending Salt Lake Center
Fri 08:16:50 PM 41.7053 -112.4906 169° South 314 361 18,200 -2,129 Descending Salt Lake Center
Fri 08:17:22 PM 41.6600 -112.4944 184° South 328 377 17,500 -1,677 Descending Salt Lake Center
Fri 08:18:23 PM 41.5697 -112.4736 170° South 340 391 15,600 -1,317 Descending Salt Lake Center
Fri 08:19:25 PM 41.4922 -112.4203 153° Southeast 317 365 14,800 -878 Descending Salt Lake Center
Fri 08:20:26 PM 41.3969 -112.3589 154° Southeast 316 364 13,800 -816 Descending Salt Lake Center
Fri 08:21:30 PM 41.3167 -112.3011 152° Southeast 316 364 13,100 -387 Descending Salt Lake Center
Fri 08:22:30 PM 41.2406 -112.2528 154° Southeast 307 353 13,000 -50 Descending Salt Lake Center
Fri 08:23:31 PM 41.1689 -112.2069 154° Southeast 301 346 13,000  Level Salt Lake Center
Fri 08:24:33 PM 41.0986 -112.1608 154° Southeast 288 331 13,000 -197 Level Salt Lake Center
Fri 08:25:33 PM 41.0086 -112.1319 166° South 297 342 12,600 -545 Descending Salt Lake Center
Fri 08:26:34 PM 40.9256 -112.1147 171° South 302 348 11,900 -744 Descending Salt Lake Center
Fri 08:27:34 PM 40.8411 -112.1008 173° South 309 356 11,100 -793 Descending Salt Lake Center
Fri 08:28:35 PM 40.7708 -112.0933 175° South 219 252 10,300 -2,213 Descending Salt Lake Center
Fri 08:29:36 PM 40.7117 -112.0767 168° South 228 262 6,600 -3,639 Descending Salt Lake Center

Login

Don't have an account? Register now (free) for customized features, flight alerts, and more!